createdAt,value
2017-01-18T00:01:07.046Z,0
2017-01-18T00:02:15.731Z,0
2017-01-18T00:03:24.414Z,0
2017-01-18T00:04:33.097Z,0
2017-01-18T00:05:41.781Z,0
2017-01-18T00:06:50.469Z,0
2017-01-18T00:07:59.149Z,0
2017-01-18T00:09:07.835Z,0
2017-01-18T00:10:16.521Z,0
2017-01-18T00:11:25.205Z,0
2017-01-18T00:12:33.884Z,0
2017-01-18T00:13:42.563Z,0
2017-01-18T00:14:51.243Z,0
2017-01-18T00:15:59.922Z,0
2017-01-18T00:17:08.606Z,0
2017-01-18T00:18:17.305Z,0
2017-01-18T00:19:26.386Z,0
2017-01-18T00:20:35.066Z,0
2017-01-18T00:21:43.761Z,0
2017-01-18T00:22:52.438Z,0
2017-01-18T00:24:01.117Z,0
2017-01-18T00:25:10.196Z,0
2017-01-18T00:26:18.893Z,0
2017-01-18T00:27:27.602Z,0
2017-01-18T00:28:36.283Z,0
2017-01-18T00:29:44.962Z,0
2017-01-18T00:30:53.649Z,0
2017-01-18T00:32:02.332Z,0
2017-01-18T00:33:11.011Z,0
2017-01-18T00:34:19.722Z,0
2017-01-18T00:35:28.410Z,0
2017-01-18T00:36:37.088Z,0
2017-01-18T00:37:45.794Z,0
2017-01-18T00:38:54.473Z,0
2017-01-18T00:40:03.155Z,0
2017-01-18T00:41:11.839Z,0
2017-01-18T00:42:20.521Z,0
2017-01-18T00:43:29.201Z,0
2017-01-18T00:44:37.881Z,0
2017-01-18T00:45:46.561Z,0
2017-01-18T00:46:55.244Z,0
2017-01-18T00:48:03.923Z,0
2017-01-18T00:49:12.602Z,0
2017-01-18T00:50:21.283Z,0
2017-01-18T00:51:30.366Z,0
2017-01-18T00:52:39.071Z,0
2017-01-18T00:53:47.755Z,0
2017-01-18T00:54:56.433Z,0
2017-01-18T00:56:05.121Z,0
2017-01-18T00:57:13.806Z,0
2017-01-18T00:58:22.488Z,0
2017-01-18T00:59:31.171Z,0
2017-01-18T01:00:39.859Z,0
2017-01-18T01:01:48.541Z,0
2017-01-18T01:02:57.221Z,0
2017-01-18T01:04:05.904Z,0
2017-01-18T01:05:14.588Z,0
2017-01-18T01:06:23.271Z,0
2017-01-18T01:07:31.950Z,0
2017-01-18T01:08:40.636Z,0
2017-01-18T01:09:49.318Z,0
2017-01-18T01:10:57.994Z,0
2017-01-18T01:12:06.680Z,0
2017-01-18T01:13:15.365Z,0
2017-01-18T01:14:24.045Z,0
2017-01-18T01:15:32.752Z,0
2017-01-18T01:16:41.438Z,0
2017-01-18T01:17:50.122Z,0
2017-01-18T01:18:58.803Z,0
2017-01-18T01:20:08.278Z,0
2017-01-18T01:21:16.966Z,0
2017-01-18T01:22:25.648Z,0
2017-01-18T01:23:34.343Z,0
2017-01-18T01:24:43.023Z,0
2017-01-18T01:25:51.710Z,0
2017-01-18T01:27:00.424Z,0
2017-01-18T01:28:09.137Z,0
2017-01-18T01:29:17.829Z,0
2017-01-18T01:30:26.510Z,0
2017-01-18T01:31:35.201Z,0
2017-01-18T01:32:43.884Z,0
2017-01-18T01:33:52.570Z,0
2017-01-18T01:35:01.256Z,0
2017-01-18T01:36:09.945Z,0
2017-01-18T01:37:18.641Z,0
2017-01-18T01:38:27.327Z,0
2017-01-18T01:39:36.007Z,0
2017-01-18T01:40:44.686Z,0
2017-01-18T01:41:53.370Z,0
2017-01-18T01:43:02.054Z,0
2017-01-18T01:44:10.733Z,0
2017-01-18T01:45:19.417Z,0
2017-01-18T01:46:28.098Z,0
2017-01-18T01:47:36.788Z,0
2017-01-18T01:48:45.469Z,0
2017-01-18T01:49:54.156Z,0
2017-01-18T01:51:02.839Z,0
2017-01-18T01:52:11.522Z,0
2017-01-18T01:53:20.213Z,0
2017-01-18T01:54:28.899Z,0
2017-01-18T01:55:37.583Z,0
2017-01-18T01:56:46.267Z,0
2017-01-18T01:57:54.952Z,0
2017-01-18T01:59:03.639Z,0
2017-01-18T02:00:12.329Z,0
2017-01-18T02:01:21.011Z,0
2017-01-18T02:02:29.720Z,0
2017-01-18T02:03:38.430Z,0
2017-01-18T02:04:47.115Z,0
2017-01-18T02:05:55.855Z,0
2017-01-18T02:07:04.542Z,0
2017-01-18T02:08:13.235Z,0
2017-01-18T02:09:21.923Z,0
2017-01-18T02:10:30.608Z,0
2017-01-18T02:11:39.291Z,0
2017-01-18T02:12:47.976Z,0
2017-01-18T02:13:56.656Z,0
2017-01-18T02:15:05.343Z,0
2017-01-18T02:16:14.034Z,0
2017-01-18T02:17:22.723Z,0
2017-01-18T02:18:31.409Z,0
2017-01-18T02:19:40.091Z,0
2017-01-18T02:20:48.770Z,0
2017-01-18T02:21:57.453Z,0
2017-01-18T02:23:06.136Z,0
2017-01-18T02:24:14.819Z,0
2017-01-18T02:25:23.511Z,0
2017-01-18T02:26:32.196Z,0
2017-01-18T02:27:40.878Z,0
2017-01-18T02:28:49.567Z,0
2017-01-18T02:29:58.261Z,0
2017-01-18T02:31:06.946Z,0
2017-01-18T02:32:15.640Z,0
2017-01-18T02:33:24.325Z,0
2017-01-18T02:34:33.007Z,0
2017-01-18T02:35:41.696Z,0
2017-01-18T02:36:50.380Z,0
2017-01-18T02:37:59.062Z,0
2017-01-18T02:39:07.747Z,0
2017-01-18T02:40:16.432Z,0
2017-01-18T02:41:25.117Z,0
2017-01-18T02:42:33.802Z,0
2017-01-18T02:43:42.489Z,0
2017-01-18T02:44:51.173Z,0
2017-01-18T02:45:59.855Z,0
2017-01-18T02:47:08.540Z,0
2017-01-18T02:48:17.222Z,0
2017-01-18T02:49:25.912Z,0
2017-01-18T02:50:34.594Z,0
2017-01-18T02:51:43.389Z,0
2017-01-18T02:52:52.078Z,0
2017-01-18T02:54:00.762Z,0
2017-01-18T02:55:09.449Z,0
2017-01-18T02:56:18.130Z,0
2017-01-18T02:57:26.833Z,0
2017-01-18T02:58:35.519Z,0
2017-01-18T02:59:44.200Z,0
2017-01-18T03:00:52.885Z,0
2017-01-18T03:02:01.569Z,0
2017-01-18T03:03:10.253Z,0
2017-01-18T03:04:18.936Z,0
2017-01-18T03:05:27.622Z,0
2017-01-18T03:06:36.304Z,0
2017-01-18T03:07:44.987Z,0
2017-01-18T03:08:53.669Z,0
2017-01-18T03:10:02.349Z,0
2017-01-18T03:11:11.058Z,0
2017-01-18T03:12:19.741Z,0
2017-01-18T03:13:28.422Z,0
2017-01-18T03:14:37.103Z,0
2017-01-18T03:15:45.783Z,0
2017-01-18T03:16:54.466Z,0
2017-01-18T03:18:03.150Z,0
2017-01-18T03:19:11.834Z,0
2017-01-18T03:20:20.519Z,0
2017-01-18T03:21:29.203Z,0
2017-01-18T03:22:37.885Z,0
2017-01-18T03:23:46.570Z,0
2017-01-18T03:24:55.259Z,0
2017-01-18T03:26:03.942Z,0
2017-01-18T03:27:12.626Z,0
2017-01-18T03:28:21.312Z,0
2017-01-18T03:29:29.990Z,0
2017-01-18T03:30:38.674Z,0
2017-01-18T03:31:47.357Z,0
2017-01-18T03:32:56.041Z,0
2017-01-18T03:34:04.724Z,0
2017-01-18T03:35:13.402Z,0
2017-01-18T03:36:22.083Z,0
2017-01-18T03:37:30.763Z,0
2017-01-18T03:38:39.490Z,0
2017-01-18T03:39:48.166Z,0
2017-01-18T03:40:56.844Z,0
2017-01-18T03:42:05.523Z,0
2017-01-18T03:43:14.206Z,0
2017-01-18T03:44:22.889Z,0
2017-01-18T03:45:31.572Z,0
2017-01-18T03:46:40.257Z,0
2017-01-18T03:47:48.941Z,0
2017-01-18T03:48:57.633Z,0
2017-01-18T03:50:06.317Z,0
2017-01-18T03:51:14.999Z,0
2017-01-18T03:52:23.680Z,0
2017-01-18T03:53:32.364Z,0
2017-01-18T03:54:41.046Z,0
2017-01-18T03:55:49.733Z,0
2017-01-18T03:56:58.415Z,0
2017-01-18T03:58:07.096Z,0
2017-01-18T03:59:15.777Z,0
2017-01-18T04:00:24.811Z,0
2017-01-18T04:01:33.491Z,0
2017-01-18T04:02:42.177Z,0
2017-01-18T04:03:50.863Z,0
2017-01-18T04:04:59.543Z,0
2017-01-18T04:06:08.224Z,0
2017-01-18T04:07:16.908Z,0
2017-01-18T04:08:25.592Z,0
2017-01-18T04:09:34.274Z,0
2017-01-18T04:10:42.964Z,0
2017-01-18T04:11:51.646Z,0
2017-01-18T04:13:00.325Z,0
2017-01-18T04:14:09.011Z,0
2017-01-18T04:15:18.091Z,0
2017-01-18T04:16:26.775Z,0
2017-01-18T04:17:35.456Z,0
2017-01-18T04:18:44.145Z,0
2017-01-18T04:19:52.829Z,0
2017-01-18T04:21:01.527Z,0
2017-01-18T04:22:10.211Z,0
2017-01-18T04:23:18.897Z,0
2017-01-18T04:24:27.582Z,0
2017-01-18T04:25:36.266Z,0
2017-01-18T04:26:44.948Z,0
2017-01-18T04:27:53.633Z,0
2017-01-18T04:29:06.750Z,0
2017-01-18T04:30:15.432Z,0
2017-01-18T04:31:24.113Z,0
2017-01-18T04:32:32.792Z,0
2017-01-18T04:33:41.471Z,0
2017-01-18T04:34:50.205Z,0
2017-01-18T04:35:58.883Z,0
2017-01-18T04:37:07.999Z,0
2017-01-18T04:38:16.685Z,0
2017-01-18T04:39:25.367Z,0
2017-01-18T04:40:34.110Z,0
2017-01-18T04:41:42.790Z,0
2017-01-18T04:42:51.477Z,0
2017-01-18T04:44:00.155Z,0
2017-01-18T04:45:08.875Z,0
2017-01-18T04:46:17.664Z,0
2017-01-18T04:47:26.354Z,0
2017-01-18T04:48:35.062Z,0
2017-01-18T04:49:43.746Z,0
2017-01-18T04:50:52.435Z,0
2017-01-18T04:52:01.167Z,0
2017-01-18T04:53:09.845Z,0
2017-01-18T04:54:18.558Z,0
2017-01-18T04:55:27.240Z,0
2017-01-18T04:56:35.923Z,0
2017-01-18T04:57:44.658Z,0
2017-01-18T04:58:53.337Z,0
2017-01-18T05:00:02.013Z,0
2017-01-18T05:01:10.693Z,0
2017-01-18T05:02:19.373Z,0
2017-01-18T05:03:28.112Z,0
2017-01-18T05:04:36.790Z,0
2017-01-18T05:05:45.477Z,0
2017-01-18T05:06:54.560Z,0
2017-01-18T05:08:03.250Z,0
2017-01-18T05:09:12.034Z,0
2017-01-18T05:10:20.720Z,0
2017-01-18T05:11:29.799Z,0
2017-01-18T05:12:38.478Z,0
2017-01-18T05:13:47.160Z,0
2017-01-18T05:14:55.896Z,0
2017-01-18T05:16:05.377Z,0
2017-01-18T05:17:14.065Z,0
2017-01-18T05:18:22.748Z,0
2017-01-18T05:19:31.857Z,0
2017-01-18T05:20:40.988Z,0
2017-01-18T05:21:49.676Z,0
2017-01-18T05:22:58.365Z,0
2017-01-18T05:24:07.052Z,0
2017-01-18T05:25:16.138Z,0
2017-01-18T05:26:24.871Z,0
2017-01-18T05:27:33.552Z,0
2017-01-18T05:28:42.237Z,0
2017-01-18T05:29:50.923Z,0
2017-01-18T05:30:59.607Z,0
2017-01-18T05:32:08.341Z,0
2017-01-18T05:33:17.025Z,0
2017-01-18T05:34:25.703Z,0
2017-01-18T05:35:34.386Z,0
2017-01-18T05:36:43.073Z,0
2017-01-18T05:37:51.809Z,0
2017-01-18T05:39:00.521Z,0
2017-01-18T05:40:09.203Z,0
2017-01-18T05:41:17.889Z,0
2017-01-18T05:42:26.577Z,0
2017-01-18T05:43:35.361Z,0
2017-01-18T05:44:44.046Z,0
2017-01-18T05:45:52.729Z,0
2017-01-18T05:47:01.413Z,0
2017-01-18T05:48:10.116Z,0
2017-01-18T05:49:18.852Z,0
2017-01-18T05:50:27.537Z,0
2017-01-18T05:51:36.220Z,0
2017-01-18T05:52:44.904Z,0
2017-01-18T05:53:53.583Z,0
2017-01-18T05:55:02.312Z,0
2017-01-18T05:56:11.007Z,0
2017-01-18T05:57:19.689Z,0
2017-01-18T05:58:28.372Z,0
2017-01-18T05:59:37.063Z,0
2017-01-18T06:00:45.796Z,0
2017-01-18T06:01:54.477Z,0
2017-01-18T06:03:03.155Z,0
2017-01-18T06:04:11.836Z,0
2017-01-18T06:05:20.518Z,0
2017-01-18T06:06:29.260Z,0
2017-01-18T06:07:37.947Z,0
2017-01-18T06:08:46.645Z,0
2017-01-18T06:09:55.324Z,0
2017-01-18T06:11:04.012Z,0
2017-01-18T06:12:12.742Z,0
2017-01-18T06:13:21.417Z,0
2017-01-18T06:14:30.100Z,0
2017-01-18T06:15:38.807Z,0
2017-01-18T06:16:47.493Z,0
2017-01-18T06:17:56.233Z,0
2017-01-18T06:19:04.917Z,0
2017-01-18T06:20:13.602Z,0
2017-01-18T06:21:22.287Z,0
2017-01-18T06:22:30.972Z,0
2017-01-18T06:23:39.705Z,0
2017-01-18T06:24:48.404Z,0
2017-01-18T06:25:57.092Z,0
2017-01-18T06:27:05.778Z,0
2017-01-18T06:28:14.463Z,0
2017-01-18T06:29:23.208Z,0
2017-01-18T06:30:31.896Z,0
2017-01-18T06:31:40.579Z,0
2017-01-18T06:32:49.270Z,0
2017-01-18T06:33:57.952Z,0
2017-01-18T06:35:06.692Z,0
2017-01-18T06:36:15.380Z,0
2017-01-18T06:37:24.085Z,0
2017-01-18T06:38:32.767Z,0
2017-01-18T06:39:41.488Z,0
2017-01-18T06:40:50.221Z,0
2017-01-18T06:41:58.933Z,0
2017-01-18T06:43:07.620Z,0
2017-01-18T06:44:16.308Z,0
2017-01-18T06:45:25.030Z,0
2017-01-18T06:46:33.759Z,0
2017-01-18T06:47:42.442Z,0
2017-01-18T06:48:51.129Z,0
2017-01-18T06:49:59.826Z,0
2017-01-18T06:51:08.531Z,0
2017-01-18T06:52:17.305Z,0
2017-01-18T06:53:25.987Z,0
2017-01-18T06:54:34.697Z,0
2017-01-18T06:55:43.381Z,0
2017-01-18T06:56:52.066Z,0
2017-01-18T06:58:00.797Z,0
2017-01-18T06:59:09.481Z,0
2017-01-18T07:00:18.165Z,0
2017-01-18T07:01:26.843Z,0
2017-01-18T07:02:35.525Z,0
2017-01-18T07:03:44.253Z,0
2017-01-18T07:04:52.958Z,0
2017-01-18T07:06:01.647Z,0
2017-01-18T07:07:10.358Z,0
2017-01-18T07:08:19.041Z,0
2017-01-18T07:09:27.778Z,0
2017-01-18T07:10:36.461Z,0
2017-01-18T07:11:45.144Z,0
2017-01-18T07:12:53.823Z,0
2017-01-18T07:14:02.510Z,0
2017-01-18T07:15:11.244Z,0
2017-01-18T07:16:19.930Z,0
2017-01-18T07:17:28.611Z,0
2017-01-18T07:18:37.312Z,0
2017-01-18T07:19:45.998Z,0
2017-01-18T07:20:54.735Z,0
2017-01-18T07:22:03.417Z,0
2017-01-18T07:23:12.102Z,0
2017-01-18T07:24:20.833Z,0
2017-01-18T07:25:29.518Z,0
2017-01-18T07:26:38.550Z,0
2017-01-18T07:27:47.235Z,0
2017-01-18T07:28:55.918Z,0
2017-01-18T07:30:04.601Z,0
2017-01-18T07:31:13.320Z,0
2017-01-18T07:32:22.060Z,0
2017-01-18T07:33:30.742Z,0
2017-01-18T07:34:39.427Z,0
2017-01-18T07:35:48.109Z,0
2017-01-18T07:36:56.793Z,0
2017-01-18T07:38:05.926Z,0
2017-01-18T07:39:14.648Z,0
2017-01-18T07:40:23.326Z,0
2017-01-18T07:41:32.014Z,0
2017-01-18T07:42:40.702Z,0
2017-01-18T07:43:49.436Z,0
2017-01-18T07:44:58.116Z,0
2017-01-18T07:46:06.799Z,0
2017-01-18T07:47:15.482Z,0
2017-01-18T07:48:24.162Z,0
2017-01-18T07:49:32.895Z,0
2017-01-18T07:50:41.579Z,0
2017-01-18T07:51:50.266Z,0
2017-01-18T07:52:58.949Z,0
2017-01-18T07:54:07.637Z,5
2017-01-18T07:55:16.477Z,5
2017-01-18T07:56:25.161Z,5
2017-01-18T07:57:33.872Z,5
2017-01-18T07:58:42.566Z,5
2017-01-18T07:59:51.255Z,5
2017-01-18T08:00:59.992Z,5
2017-01-18T08:02:08.674Z,5
2017-01-18T08:03:17.359Z,5
2017-01-18T08:04:26.064Z,5
2017-01-18T08:05:34.749Z,5
2017-01-18T08:06:43.513Z,5
2017-01-18T08:07:52.201Z,10
2017-01-18T08:09:00.884Z,10
2017-01-18T08:10:09.968Z,10
2017-01-18T08:11:18.650Z,10
2017-01-18T08:12:27.384Z,10
2017-01-18T08:13:36.070Z,10
2017-01-18T08:14:44.753Z,10
2017-01-18T08:15:53.441Z,15
2017-01-18T08:17:02.127Z,15
2017-01-18T08:18:10.860Z,15
2017-01-18T08:19:19.542Z,15
2017-01-18T08:20:28.251Z,20
2017-01-18T08:21:36.931Z,20
2017-01-18T08:22:45.615Z,20
2017-01-18T08:23:54.346Z,25
2017-01-18T08:25:03.033Z,25
2017-01-18T08:26:11.731Z,25
2017-01-18T08:27:20.413Z,30
2017-01-18T08:28:29.103Z,35
2017-01-18T08:29:37.833Z,35
2017-01-18T08:30:46.521Z,45
2017-01-18T08:31:55.203Z,45
2017-01-18T08:33:03.891Z,50
2017-01-18T08:34:12.575Z,55
2017-01-18T08:35:21.312Z,55
2017-01-18T08:36:29.996Z,60
2017-01-18T08:37:38.676Z,60
2017-01-18T08:38:47.363Z,60
2017-01-18T08:39:56.042Z,65
2017-01-18T08:41:04.777Z,65
2017-01-18T08:42:13.483Z,70
2017-01-18T08:43:22.177Z,70
2017-01-18T08:44:30.858Z,70
2017-01-18T08:45:39.542Z,70
2017-01-18T08:46:48.280Z,75
2017-01-18T08:47:56.978Z,75
2017-01-18T08:49:05.658Z,80
2017-01-18T08:50:14.340Z,80
2017-01-18T08:51:23.442Z,80
2017-01-18T08:52:32.178Z,80
2017-01-18T08:53:40.861Z,80
2017-01-18T08:54:49.546Z,75
2017-01-18T08:55:58.231Z,80
2017-01-18T08:57:06.916Z,85
2017-01-18T08:58:15.649Z,85
2017-01-18T08:59:24.325Z,85
2017-01-18T09:00:33.005Z,85
2017-01-18T09:01:41.686Z,90
2017-01-18T09:02:50.375Z,90
2017-01-18T09:03:59.110Z,90
2017-01-18T09:05:07.797Z,90
2017-01-18T09:06:16.511Z,90
2017-01-18T09:07:25.191Z,85
2017-01-18T09:08:33.906Z,85
2017-01-18T09:09:42.638Z,85
2017-01-18T09:10:51.315Z,85
2017-01-18T09:11:59.996Z,90
2017-01-18T09:13:08.683Z,85
2017-01-18T09:14:17.361Z,90
2017-01-18T09:15:26.489Z,85
2017-01-18T09:16:35.174Z,90
2017-01-18T09:17:43.888Z,90
2017-01-18T09:18:52.571Z,90
2017-01-18T09:20:01.262Z,90
2017-01-18T09:21:10.025Z,85
2017-01-18T09:22:18.707Z,80
2017-01-18T09:23:27.391Z,80
2017-01-18T09:24:36.073Z,75
2017-01-18T09:25:44.758Z,70
2017-01-18T09:26:53.496Z,70
2017-01-18T09:28:02.181Z,70
2017-01-18T09:29:10.865Z,70
2017-01-18T09:30:19.554Z,70
2017-01-18T09:31:28.241Z,70
2017-01-18T09:32:36.983Z,70
2017-01-18T09:33:45.667Z,70
2017-01-18T09:34:54.354Z,70
2017-01-18T09:36:03.036Z,70
2017-01-18T09:37:12.151Z,70
2017-01-18T09:38:20.962Z,70
2017-01-18T09:39:29.644Z,75
2017-01-18T09:40:38.328Z,75
2017-01-18T09:41:47.019Z,70
2017-01-18T09:42:55.707Z,70
2017-01-18T09:44:04.436Z,70
2017-01-18T09:45:13.121Z,70
2017-01-18T09:46:21.811Z,70
2017-01-18T09:47:30.494Z,70
2017-01-18T09:48:39.198Z,70
2017-01-18T09:49:47.933Z,70
2017-01-18T09:50:56.613Z,70
2017-01-18T09:52:05.296Z,70
2017-01-18T09:53:13.980Z,70
2017-01-18T09:54:22.742Z,70
2017-01-18T09:55:31.476Z,70
2017-01-18T09:56:40.166Z,70
2017-01-18T09:57:48.858Z,75
2017-01-18T09:58:57.937Z,75
2017-01-18T10:00:06.621Z,75
2017-01-18T10:01:15.652Z,75
2017-01-18T10:02:24.335Z,75
2017-01-18T10:03:33.024Z,75
2017-01-18T10:04:41.707Z,75
2017-01-18T10:05:50.396Z,75
2017-01-18T10:06:59.131Z,75
2017-01-18T10:08:07.813Z,75
2017-01-18T10:09:16.499Z,80
2017-01-18T10:10:25.212Z,80
2017-01-18T10:11:33.899Z,80
2017-01-18T10:12:42.662Z,80
2017-01-18T10:13:51.353Z,80
2017-01-18T10:15:00.035Z,85
2017-01-18T10:16:08.732Z,85
2017-01-18T10:17:17.451Z,85
2017-01-18T10:18:26.185Z,85
2017-01-18T10:19:34.875Z,90
2017-01-18T10:20:43.559Z,90
2017-01-18T10:21:52.246Z,90
2017-01-18T10:23:00.945Z,85
2017-01-18T10:24:09.680Z,85
2017-01-18T10:25:18.362Z,85
2017-01-18T10:26:27.049Z,85
2017-01-18T10:27:35.760Z,85
2017-01-18T10:28:44.441Z,85
2017-01-18T10:29:53.174Z,85
2017-01-18T10:31:01.884Z,85
2017-01-18T10:32:10.571Z,85
2017-01-18T10:33:19.262Z,85
2017-01-18T10:34:27.950Z,85
2017-01-18T10:35:36.710Z,85
2017-01-18T10:36:45.398Z,85
2017-01-18T10:37:54.082Z,85
2017-01-18T10:39:03.163Z,85
2017-01-18T10:40:11.850Z,85
2017-01-18T10:41:20.586Z,85
2017-01-18T10:42:29.271Z,90
2017-01-18T10:43:37.958Z,90
2017-01-18T10:44:46.646Z,90
2017-01-18T10:45:55.331Z,90
2017-01-18T10:47:04.063Z,90
2017-01-18T10:48:12.744Z,90
2017-01-18T10:49:21.455Z,90
2017-01-18T10:50:30.137Z,90
2017-01-18T10:51:38.846Z,90
2017-01-18T10:52:47.582Z,90
2017-01-18T10:53:56.266Z,85
2017-01-18T10:55:04.952Z,90
2017-01-18T10:56:13.634Z,90
2017-01-18T10:57:22.315Z,90
2017-01-18T10:58:31.043Z,90
2017-01-18T10:59:39.733Z,90
2017-01-18T11:00:48.419Z,95
2017-01-18T11:01:57.102Z,95
2017-01-18T11:03:05.785Z,95
2017-01-18T11:04:14.519Z,95
2017-01-18T11:05:23.210Z,95
2017-01-18T11:06:31.939Z,95
2017-01-18T11:07:40.619Z,95
2017-01-18T11:08:49.305Z,95
2017-01-18T11:09:58.037Z,95
2017-01-18T11:11:06.725Z,100
2017-01-18T11:12:15.465Z,100
2017-01-18T11:13:24.143Z,100
2017-01-18T11:14:32.832Z,100
2017-01-18T11:15:41.564Z,100
2017-01-18T11:16:50.248Z,95
2017-01-18T11:17:58.933Z,95
2017-01-18T11:19:07.616Z,100
2017-01-18T11:20:16.309Z,100
2017-01-18T11:21:25.044Z,100
2017-01-18T11:22:33.724Z,100
2017-01-18T11:23:42.417Z,100
2017-01-18T11:24:51.103Z,100
2017-01-18T11:25:59.780Z,100
2017-01-18T11:27:08.621Z,100
2017-01-18T11:28:17.303Z,105
2017-01-18T11:29:25.987Z,105
2017-01-18T11:30:34.706Z,105
2017-01-18T11:31:43.392Z,105
2017-01-18T11:32:52.155Z,105
2017-01-18T11:34:00.841Z,105
2017-01-18T11:35:09.534Z,105
2017-01-18T11:36:18.221Z,110
2017-01-18T11:37:27.304Z,110
2017-01-18T11:38:36.039Z,110
2017-01-18T11:39:44.729Z,110
2017-01-18T11:40:53.415Z,105
2017-01-18T11:42:02.127Z,105
2017-01-18T11:43:10.808Z,105
2017-01-18T11:44:19.489Z,105
2017-01-18T11:45:28.175Z,105
2017-01-18T11:46:36.858Z,105
2017-01-18T11:47:45.540Z,105
2017-01-18T11:48:54.220Z,105
2017-01-18T11:50:02.913Z,100
2017-01-18T11:51:11.605Z,100
2017-01-18T11:52:20.286Z,95
2017-01-18T11:53:28.987Z,95
2017-01-18T11:54:37.668Z,95
2017-01-18T11:55:46.353Z,95
2017-01-18T11:56:55.038Z,90
2017-01-18T11:58:03.725Z,90
2017-01-18T11:59:12.410Z,90
2017-01-18T12:00:21.090Z,85
2017-01-18T12:01:29.770Z,80
2017-01-18T12:02:38.455Z,80
2017-01-18T12:03:47.136Z,80
2017-01-18T12:04:55.823Z,75
2017-01-18T12:06:04.513Z,75
2017-01-18T12:07:13.199Z,75
2017-01-18T12:08:21.889Z,75
2017-01-18T12:09:30.574Z,75
2017-01-18T12:10:39.266Z,75
2017-01-18T12:11:47.948Z,75
2017-01-18T12:12:56.629Z,80
2017-01-18T12:14:05.323Z,80
2017-01-18T12:15:14.010Z,85
2017-01-18T12:16:22.699Z,85
2017-01-18T12:17:31.385Z,85
2017-01-18T12:18:40.073Z,85
2017-01-18T12:19:48.764Z,95
2017-01-18T12:20:57.444Z,105
2017-01-18T12:22:06.130Z,105
2017-01-18T12:23:14.819Z,105
2017-01-18T12:24:23.505Z,105
2017-01-18T12:25:32.189Z,105
2017-01-18T12:26:40.898Z,100
2017-01-18T12:27:49.582Z,95
2017-01-18T12:28:58.264Z,95
2017-01-18T12:30:06.950Z,85
2017-01-18T12:31:15.642Z,85
2017-01-18T12:32:24.328Z,75
2017-01-18T12:33:33.014Z,75
2017-01-18T12:34:41.699Z,70
2017-01-18T12:35:50.384Z,75
2017-01-18T12:36:59.067Z,75
2017-01-18T12:38:07.770Z,75
2017-01-18T12:39:16.463Z,75
2017-01-18T12:40:25.547Z,80
2017-01-18T12:41:34.235Z,80
2017-01-18T12:42:42.923Z,85
2017-01-18T12:43:52.013Z,80
2017-01-18T12:45:00.701Z,80
2017-01-18T12:46:09.400Z,85
2017-01-18T12:47:18.091Z,85
2017-01-18T12:48:26.776Z,80
2017-01-18T12:49:35.462Z,80
2017-01-18T12:50:44.152Z,80
2017-01-18T12:51:52.839Z,80
2017-01-18T12:53:01.525Z,85
2017-01-18T12:54:10.214Z,85
2017-01-18T12:55:18.904Z,85
2017-01-18T12:56:27.598Z,85
2017-01-18T12:57:36.292Z,85
2017-01-18T12:58:44.980Z,85
2017-01-18T12:59:53.662Z,85
2017-01-18T13:01:02.363Z,90
2017-01-18T13:02:11.049Z,95
2017-01-18T13:03:19.738Z,95
2017-01-18T13:04:28.449Z,95
2017-01-18T13:05:37.133Z,90
2017-01-18T13:06:45.825Z,85
2017-01-18T13:07:54.513Z,85
2017-01-18T13:09:03.196Z,90
2017-01-18T13:10:11.883Z,90
2017-01-18T13:11:20.564Z,90
2017-01-18T13:12:29.245Z,90
2017-01-18T13:13:37.930Z,85
2017-01-18T13:14:46.619Z,80
2017-01-18T13:15:55.303Z,75
2017-01-18T13:17:04.017Z,75
2017-01-18T13:18:12.702Z,70
2017-01-18T13:19:21.382Z,70
2017-01-18T13:20:30.100Z,65
2017-01-18T13:21:38.812Z,65
2017-01-18T13:22:47.493Z,65
2017-01-18T13:23:56.175Z,65
2017-01-18T13:25:05.260Z,65
2017-01-18T13:26:13.944Z,65
2017-01-18T13:27:22.638Z,65
2017-01-18T13:28:31.321Z,65
2017-01-18T13:29:40.003Z,65
2017-01-18T13:30:48.696Z,65
2017-01-18T13:31:57.376Z,65
2017-01-18T13:33:06.060Z,65
2017-01-18T13:34:14.746Z,60
2017-01-18T13:35:23.435Z,60
2017-01-18T13:36:32.121Z,60
2017-01-18T13:37:40.803Z,60
2017-01-18T13:38:49.484Z,60
2017-01-18T13:39:58.173Z,60
2017-01-18T13:41:06.855Z,55
2017-01-18T13:42:15.538Z,55
2017-01-18T13:43:24.240Z,60
2017-01-18T13:44:32.931Z,55
2017-01-18T13:45:41.617Z,50
2017-01-18T13:46:50.299Z,45
2017-01-18T13:47:58.979Z,45
2017-01-18T13:49:07.665Z,50
2017-01-18T13:50:16.353Z,50
2017-01-18T13:51:25.033Z,55
2017-01-18T13:52:33.713Z,55
2017-01-18T13:53:42.394Z,55
2017-01-18T13:54:51.080Z,50
2017-01-18T13:55:59.765Z,45
2017-01-18T13:57:08.478Z,50
2017-01-18T13:58:17.165Z,45
2017-01-18T13:59:25.848Z,45
2017-01-18T14:00:34.535Z,45
2017-01-18T14:01:43.227Z,45
2017-01-18T14:02:51.908Z,50
2017-01-18T14:04:00.592Z,60
2017-01-18T14:05:09.285Z,60
2017-01-18T14:06:17.968Z,55
2017-01-18T14:07:26.653Z,50
2017-01-18T14:08:35.337Z,45
2017-01-18T14:09:44.017Z,45
2017-01-18T14:10:52.701Z,45
2017-01-18T14:12:01.389Z,50
2017-01-18T14:13:10.072Z,50
2017-01-18T14:14:18.752Z,55
2017-01-18T14:15:27.436Z,50
2017-01-18T14:16:36.123Z,45
2017-01-18T14:17:44.812Z,45
2017-01-18T14:18:53.497Z,45
2017-01-18T14:20:02.176Z,45
2017-01-18T14:21:10.859Z,40
2017-01-18T14:22:19.542Z,40
2017-01-18T14:23:28.229Z,35
2017-01-18T14:24:36.908Z,35
2017-01-18T14:25:45.598Z,35
2017-01-18T14:26:54.282Z,35
2017-01-18T14:28:02.965Z,35
2017-01-18T14:29:11.648Z,30
2017-01-18T14:30:20.354Z,30
2017-01-18T14:31:29.036Z,30
2017-01-18T14:32:38.112Z,30
2017-01-18T14:33:46.801Z,30
2017-01-18T14:34:55.491Z,30
2017-01-18T14:36:04.228Z,30
2017-01-18T14:37:12.908Z,30
2017-01-18T14:38:21.591Z,25
2017-01-18T14:39:30.275Z,25
2017-01-18T14:40:38.959Z,25
2017-01-18T14:41:47.993Z,25
2017-01-18T14:42:56.685Z,25
2017-01-18T14:44:05.369Z,25
2017-01-18T14:45:14.057Z,25
2017-01-18T14:46:22.738Z,25
2017-01-18T14:47:31.473Z,25
2017-01-18T14:48:40.157Z,25
2017-01-18T14:49:48.841Z,25
2017-01-18T14:50:57.527Z,20
2017-01-18T14:52:06.215Z,20
2017-01-18T14:53:15.002Z,20
2017-01-18T14:54:23.684Z,20
2017-01-18T14:55:32.365Z,20
2017-01-18T14:56:41.055Z,20
2017-01-18T14:57:49.770Z,20
2017-01-18T14:58:58.509Z,20
2017-01-18T15:00:07.198Z,15
2017-01-18T15:01:15.881Z,15
2017-01-18T15:02:24.564Z,15
2017-01-18T15:03:33.249Z,10
2017-01-18T15:04:42.384Z,10
2017-01-18T15:05:51.068Z,10
2017-01-18T15:06:59.753Z,5
2017-01-18T15:08:08.465Z,5
2017-01-18T15:09:17.154Z,5
2017-01-18T15:10:25.892Z,5
2017-01-18T15:11:34.582Z,0
2017-01-18T15:12:43.265Z,0
2017-01-18T15:13:51.954Z,0
2017-01-18T15:15:00.639Z,0
2017-01-18T15:16:09.379Z,0
2017-01-18T15:17:18.066Z,0
2017-01-18T15:18:26.746Z,0
2017-01-18T15:19:35.431Z,0
2017-01-18T15:20:44.138Z,0
2017-01-18T15:21:52.895Z,0
2017-01-18T15:23:01.581Z,0
2017-01-18T15:24:10.266Z,0
2017-01-18T15:25:18.949Z,0
2017-01-18T15:26:27.642Z,0
2017-01-18T15:27:36.374Z,0
2017-01-18T15:28:45.061Z,0
2017-01-18T15:29:53.748Z,0
2017-01-18T15:31:02.443Z,0
2017-01-18T15:32:11.128Z,0
2017-01-18T15:33:19.863Z,0
2017-01-18T15:34:28.550Z,0
2017-01-18T15:35:37.231Z,0
2017-01-18T15:36:45.919Z,0
2017-01-18T15:37:54.606Z,0
2017-01-18T15:39:03.352Z,0
2017-01-18T15:40:12.032Z,0
2017-01-18T15:41:20.718Z,0
2017-01-18T15:42:29.402Z,0
2017-01-18T15:43:38.094Z,0
2017-01-18T15:44:46.832Z,0
2017-01-18T15:45:55.517Z,0
2017-01-18T15:47:04.131Z,0
2017-01-18T15:48:12.811Z,0
2017-01-18T15:49:21.493Z,0
2017-01-18T15:50:30.249Z,0
2017-01-18T15:51:38.928Z,0
2017-01-18T15:52:47.607Z,0
2017-01-18T15:53:56.325Z,0
2017-01-18T15:55:05.006Z,0
2017-01-18T15:56:13.739Z,0
2017-01-18T15:57:22.423Z,0
2017-01-18T15:58:31.104Z,0
2017-01-18T15:59:39.788Z,0
2017-01-18T16:00:48.472Z,0
2017-01-18T16:01:57.197Z,0
2017-01-18T16:03:05.873Z,0
2017-01-18T16:04:14.552Z,0
2017-01-18T16:05:23.237Z,0
2017-01-18T16:06:31.918Z,0
2017-01-18T16:07:40.700Z,0
2017-01-18T16:08:49.379Z,0
2017-01-18T16:09:58.062Z,0
2017-01-18T16:11:06.742Z,0
2017-01-18T16:12:15.424Z,0
2017-01-18T16:13:24.156Z,0
2017-01-18T16:14:32.836Z,0
2017-01-18T16:15:41.516Z,0
2017-01-18T16:16:50.197Z,0
2017-01-18T16:17:58.880Z,0
2017-01-18T16:19:07.611Z,0
2017-01-18T16:20:16.291Z,0
2017-01-18T16:21:24.973Z,0
2017-01-18T16:22:33.662Z,0
2017-01-18T16:23:42.343Z,0
2017-01-18T16:24:51.071Z,0
2017-01-18T16:25:59.753Z,0
2017-01-18T16:27:08.436Z,0
2017-01-18T16:28:17.119Z,0
2017-01-18T16:29:25.799Z,0
2017-01-18T16:30:34.535Z,0
2017-01-18T16:31:43.211Z,0
2017-01-18T16:32:51.898Z,0
2017-01-18T16:34:00.580Z,0
2017-01-18T16:35:09.265Z,0
2017-01-18T16:36:18.000Z,0
2017-01-18T16:37:26.680Z,0
2017-01-18T16:38:35.359Z,0
2017-01-18T16:39:44.063Z,0